Time;durP1;ratioP1;P1;durP2;ratioP2;P2;SDS_P1;SDS_P2;PMS_P1;PMS_P2;Temp;Humidity;BMP_temperature;BMP_pressure;BME280_temperature;BME280_humidity;BME280_pressure;Samples;Min_cycle;Max_cycle;Signal;HPM_P1;HPM_P2
2021/12/03 00:00:13;;;;;;;3.90;3.50;;;;;;;;;;5044229;28;20790;-83
2021/12/03 00:02:40;;;;;;;4.35;3.70;;;;;;;;;;5044385;28;20403;-84
2021/12/03 00:05:09;;;;;;;4.10;3.60;;;;;;;;;;5032876;28;20410;-82
2021/12/03 00:07:37;;;;;;;4.40;3.80;;;;;;;;;;5031792;28;20407;-84
2021/12/03 00:10:07;;;;;;;4.30;3.38;;;;;;;;;;5032760;28;20449;-84
2021/12/03 00:12:34;;;;;;;4.10;3.67;;;;;;;;;;5032179;28;20480;-84
2021/12/03 00:15:01;;;;;;;3.58;3.25;;;;;;;;;;5032447;28;20406;-84
2021/12/03 00:17:28;;;;;;;4.07;3.40;;;;;;;;;;5031724;28;20408;-85
2021/12/03 00:19:55;;;;;;;4.10;3.60;;;;;;;;;;5044385;28;20400;-84
2021/12/03 00:22:22;;;;;;;4.20;3.22;;;;;;;;;;5044311;28;20404;-84
2021/12/03 00:24:49;;;;;;;4.82;3.30;;;;;;;;;;5043432;28;20461;-83
2021/12/03 00:27:17;;;;;;;5.13;4.20;;;;;;;;;;5040968;28;20443;-83
2021/12/03 00:29:47;;;;;;;5.40;4.40;;;;;;;;;;5031497;28;20413;-84
2021/12/03 00:32:14;;;;;;;5.10;4.40;;;;;;;;;;5040312;28;20418;-83
2021/12/03 00:34:41;;;;;;;5.72;4.93;;;;;;;;;;5043555;28;21171;-84
2021/12/03 00:37:07;;;;;;;6.05;5.28;;;;;;;;;;5043458;28;20413;-84
2021/12/03 00:39:34;;;;;;;6.60;5.00;;;;;;;;;;5040260;28;20405;-84
2021/12/03 00:42:03;;;;;;;5.57;4.95;;;;;;;;;;5038682;28;20432;-84
2021/12/03 00:44:32;;;;;;;5.32;4.82;;;;;;;;;;5041253;28;20409;-84
2021/12/03 00:47:00;;;;;;;6.05;5.35;;;;;;;;;;5034422;28;20918;-84
2021/12/03 00:49:27;;;;;;;6.20;5.00;;;;;;;;;;5056371;28;20424;-84
2021/12/03 00:51:54;;;;;;;5.47;4.97;;;;;;;;;;5045162;28;20414;-83
2021/12/03 00:54:21;;;;;;;6.63;5.70;;;;;;;;;;5030972;28;20469;-84
2021/12/03 00:56:47;;;;;;;6.88;5.38;;;;;;;;;;5031418;28;20408;-84
2021/12/03 00:59:14;;;;;;;6.10;5.50;;;;;;;;;;5043414;28;20403;-84
2021/12/03 01:01:42;;;;;;;5.82;5.03;;;;;;;;;;5042484;28;20474;-83
2021/12/03 01:04:09;;;;;;;6.00;5.37;;;;;;;;;;5042948;28;20411;-85
2021/12/03 01:06:36;;;;;;;5.43;4.80;;;;;;;;;;5035273;28;20945;-85
2021/12/03 01:09:04;;;;;;;6.03;5.25;;;;;;;;;;5030614;28;20409;-84
2021/12/03 01:11:31;;;;;;;5.78;5.20;;;;;;;;;;5029710;28;20790;-84
2021/12/03 01:14:00;;;;;;;6.32;5.28;;;;;;;;;;5030008;28;20413;-84
2021/12/03 01:16:28;;;;;;;6.25;5.18;;;;;;;;;;5029707;28;20416;-84
2021/12/03 01:18:57;;;;;;;5.60;5.00;;;;;;;;;;5032008;28;20506;-82
2021/12/03 01:21:24;;;;;;;5.50;5.00;;;;;;;;;;5036593;28;20427;-84
2021/12/03 01:23:52;;;;;;;6.20;5.22;;;;;;;;;;5043851;28;20407;-84
2021/12/03 01:26:20;;;;;;;6.35;4.95;;;;;;;;;;5043811;28;20872;-84
2021/12/03 01:28:47;;;;;;;5.70;5.10;;;;;;;;;;5041147;28;20994;-83
2021/12/03 01:31:16;;;;;;;6.47;5.10;;;;;;;;;;5044833;28;20768;-84
2021/12/03 01:33:46;;;;;;;6.05;5.18;;;;;;;;;;5043378;28;20407;-84
2021/12/03 01:36:15;;;;;;;6.18;5.10;;;;;;;;;;5037714;28;20417;-84
2021/12/03 01:38:42;;;;;;;6.47;4.90;;;;;;;;;;5031836;28;20901;-83
2021/12/03 01:41:09;;;;;;;5.05;4.55;;;;;;;;;;5043526;28;20929;-82
2021/12/03 01:43:36;;;;;;;5.97;5.07;;;;;;;;;;5041971;28;21228;-84
2021/12/03 01:46:06;;;;;;;5.43;4.93;;;;;;;;;;5042602;28;20399;-84
2021/12/03 01:48:33;;;;;;;5.93;5.10;;;;;;;;;;5032253;28;20765;-84
2021/12/03 01:51:00;;;;;;;5.38;4.88;;;;;;;;;;5030633;28;20413;-84
2021/12/03 01:53:31;;;;;;;5.43;4.82;;;;;;;;;;5029099;28;20409;-84
2021/12/03 01:56:04;;;;;;;5.88;4.90;;;;;;;;;;5029661;28;20408;-83
2021/12/03 01:58:31;;;;;;;7.90;5.88;;;;;;;;;;5028792;28;20404;-84
2021/12/03 02:01:01;;;;;;;7.40;6.38;;;;;;;;;;5028705;28;20417;-83
2021/12/03 02:03:30;;;;;;;9.30;6.80;;;;;;;;;;5027170;28;20870;-84
2021/12/03 02:05:58;;;;;;;8.80;6.95;;;;;;;;;;5029930;28;20889;-84
2021/12/03 02:08:25;;;;;;;8.43;6.90;;;;;;;;;;5027703;28;20773;-84
2021/12/03 02:10:55;;;;;;;8.95;6.80;;;;;;;;;;5027504;28;20421;-84
2021/12/03 02:13:21;;;;;;;9.25;7.00;;;;;;;;;;5028080;28;20410;-84
2021/12/03 02:15:48;;;;;;;10.23;7.25;;;;;;;;;;5027311;28;20408;-83
2021/12/03 02:18:17;;;;;;;8.77;7.07;;;;;;;;;;5026338;28;20408;-83
2021/12/03 02:20:46;;;;;;;9.45;6.88;;;;;;;;;;5038449;28;20931;-83
2021/12/03 02:23:14;;;;;;;9.15;7.30;;;;;;;;;;5025771;28;20405;-83
2021/12/03 02:25:42;;;;;;;10.47;7.70;;;;;;;;;;5026718;28;20762;-84
2021/12/03 02:28:08;;;;;;;9.68;7.53;;;;;;;;;;5042054;28;20409;-83
2021/12/03 02:30:35;;;;;;;11.55;9.10;;;;;;;;;;5041319;28;20407;-84
2021/12/03 02:33:03;;;;;;;11.85;9.88;;;;;;;;;;5043506;28;20411;-83
2021/12/03 02:35:30;;;;;;;13.05;11.02;;;;;;;;;;5041130;28;20978;-83
2021/12/03 02:37:58;;;;;;;14.63;11.33;;;;;;;;;;5037993;28;20411;-83
2021/12/03 02:40:27;;;;;;;14.05;11.70;;;;;;;;;;5041191;28;21223;-83
2021/12/03 02:42:55;;;;;;;15.25;11.60;;;;;;;;;;5039564;28;20399;-82
2021/12/03 02:45:22;;;;;;;15.57;12.25;;;;;;;;;;5039264;28;20411;-82
2021/12/03 02:47:49;;;;;;;17.05;12.68;;;;;;;;;;5042637;28;20396;-83
2021/12/03 02:50:17;;;;;;;16.10;12.80;;;;;;;;;;5041546;28;21198;-81
2021/12/03 02:52:45;;;;;;;18.88;13.90;;;;;;;;;;5042368;28;20414;-83
2021/12/03 02:55:14;;;;;;;18.02;13.52;;;;;;;;;;5042499;28;20407;-83
2021/12/03 02:57:41;;;;;;;17.85;13.70;;;;;;;;;;5041785;28;20886;-83
2021/12/03 03:00:11;;;;;;;20.05;14.60;;;;;;;;;;5043222;28;20404;-82
2021/12/03 03:02:38;;;;;;;18.63;14.40;;;;;;;;;;5036036;28;20428;-82
2021/12/03 03:05:06;;;;;;;19.02;15.00;;;;;;;;;;5035706;28;20992;-82
2021/12/03 03:07:33;;;;;;;18.58;14.63;;;;;;;;;;5036561;28;20882;-82
2021/12/03 03:10:00;;;;;;;19.77;14.70;;;;;;;;;;5034737;28;20536;-82
2021/12/03 03:12:28;;;;;;;18.50;14.48;;;;;;;;;;5009817;28;20410;-82
2021/12/03 03:15:00;;;;;;;19.80;15.07;;;;;;;;;;5005892;28;20406;-82
2021/12/03 03:17:29;;;;;;;20.40;15.15;;;;;;;;;;5007563;28;20406;-82
2021/12/03 03:19:57;;;;;;;19.60;15.00;;;;;;;;;;5008558;28;20879;-83
2021/12/03 03:22:24;;;;;;;19.63;15.25;;;;;;;;;;5015071;28;20422;-83
2021/12/03 03:24:52;;;;;;;18.88;15.27;;;;;;;;;;5012903;28;20410;-82
2021/12/03 03:27:20;;;;;;;21.40;15.15;;;;;;;;;;5009881;28;20843;-82
2021/12/03 03:29:49;;;;;;;19.45;14.48;;;;;;;;;;5009310;28;20891;-83
2021/12/03 03:32:16;;;;;;;19.08;15.23;;;;;;;;;;5009796;28;20910;-82
2021/12/03 03:34:43;;;;;;;19.73;14.48;;;;;;;;;;5009123;28;20417;-81
2021/12/03 03:37:10;;;;;;;19.63;14.70;;;;;;;;;;5017127;28;20500;-83
2021/12/03 03:39:37;;;;;;;18.50;14.63;;;;;;;;;;5019737;28;20903;-83
2021/12/03 03:42:05;;;;;;;19.10;14.50;;;;;;;;;;5019926;28;20432;-83
2021/12/03 03:44:32;;;;;;;21.00;15.85;;;;;;;;;;5018398;28;20787;-83
2021/12/03 03:47:01;;;;;;;21.10;16.08;;;;;;;;;;5024053;28;20406;-81
2021/12/03 03:49:28;;;;;;;21.60;16.20;;;;;;;;;;5029670;28;20482;-82
2021/12/03 03:51:56;;;;;;;21.58;15.73;;;;;;;;;;5009653;28;20422;-83
2021/12/03 03:54:23;;;;;;;20.83;16.20;;;;;;;;;;5021054;28;20421;-83
2021/12/03 03:56:50;;;;;;;22.20;16.17;;;;;;;;;;5017198;28;20407;-83
2021/12/03 03:59:18;;;;;;;19.80;15.48;;;;;;;;;;5021654;28;20415;-82
2021/12/03 04:01:45;;;;;;;20.80;15.10;;;;;;;;;;5021464;28;20456;-83
2021/12/03 04:04:13;;;;;;;20.35;15.30;;;;;;;;;;5021332;28;20909;-83
2021/12/03 04:06:40;;;;;;;20.77;15.25;;;;;;;;;;5022020;28;20415;-82
2021/12/03 04:09:08;;;;;;;22.10;16.20;;;;;;;;;;5019309;28;20409;-82
2021/12/03 04:11:35;;;;;;;21.15;14.73;;;;;;;;;;5031842;28;20419;-83
2021/12/03 04:14:02;;;;;;;18.98;14.48;;;;;;;;;;5038979;28;20411;-83
2021/12/03 04:16:30;;;;;;;19.23;14.10;;;;;;;;;;5039744;28;20485;-83
2021/12/03 04:18:57;;;;;;;19.27;14.20;;;;;;;;;;5036054;28;20957;-84
2021/12/03 04:21:26;;;;;;;18.42;13.75;;;;;;;;;;5040112;28;20739;-83
2021/12/03 04:23:54;;;;;;;17.73;13.27;;;;;;;;;;5036841;28;21028;-84
2021/12/03 04:26:21;;;;;;;19.00;13.80;;;;;;;;;;5040058;28;20430;-83
2021/12/03 04:28:48;;;;;;;17.40;13.52;;;;;;;;;;5037330;28;20483;-83
2021/12/03 04:31:15;;;;;;;15.95;12.55;;;;;;;;;;5039539;28;20640;-84
2021/12/03 04:33:41;;;;;;;16.13;11.73;;;;;;;;;;5037713;28;20399;-85
2021/12/03 04:36:08;;;;;;;15.82;12.15;;;;;;;;;;5044139;28;20791;-84
2021/12/03 04:38:37;;;;;;;13.83;10.50;;;;;;;;;;5040449;28;20907;-82
2021/12/03 04:41:03;;;;;;;12.57;10.50;;;;;;;;;;5037435;28;20804;-82
2021/12/03 04:43:31;;;;;;;12.57;10.77;;;;;;;;;;5039537;28;20404;-84
2021/12/03 04:45:59;;;;;;;12.95;9.25;;;;;;;;;;5040609;28;20737;-84
2021/12/03 04:48:26;;;;;;;11.75;9.52;;;;;;;;;;5036556;28;20457;-83
2021/12/03 04:50:53;;;;;;;12.80;9.80;;;;;;;;;;5042265;28;20412;-84
2021/12/03 04:53:20;;;;;;;10.80;8.98;;;;;;;;;;5039550;28;20411;-83
2021/12/03 04:55:50;;;;;;;12.77;9.67;;;;;;;;;;5036491;28;20902;-84
2021/12/03 04:58:17;;;;;;;11.38;9.32;;;;;;;;;;5037566;28;20397;-84
2021/12/03 05:00:46;;;;;;;11.57;9.02;;;;;;;;;;5036167;28;20406;-84
2021/12/03 05:03:13;;;;;;;11.45;8.68;;;;;;;;;;5036623;28;21037;-84
2021/12/03 05:05:44;;;;;;;12.07;9.68;;;;;;;;;;5042468;28;20415;-83
2021/12/03 05:08:12;;;;;;;12.18;9.30;;;;;;;;;;5038475;28;20497;-84
2021/12/03 05:10:41;;;;;;;13.15;9.65;;;;;;;;;;5034665;28;20411;-84
2021/12/03 05:13:13;;;;;;;12.02;10.02;;;;;;;;;;5017518;28;20768;-84
2021/12/03 05:15:40;;;;;;;11.52;9.85;;;;;;;;;;5014265;28;20402;-84
2021/12/03 05:18:08;;;;;;;13.20;10.23;;;;;;;;;;5015330;28;20416;-83
2021/12/03 05:20:36;;;;;;;13.15;10.10;;;;;;;;;;5015586;28;20431;-84
2021/12/03 05:23:04;;;;;;;15.45;11.85;;;;;;;;;;5017749;28;20428;-83
2021/12/03 05:25:33;;;;;;;13.88;11.57;;;;;;;;;;5017661;28;20412;-85
2021/12/03 05:28:00;;;;;;;15.82;12.38;;;;;;;;;;5017191;28;20405;-83
2021/12/03 05:30:29;;;;;;;17.08;12.60;;;;;;;;;;5015366;28;20407;-84
2021/12/03 05:32:57;;;;;;;17.05;12.73;;;;;;;;;;5015713;28;20393;-84
2021/12/03 05:35:24;;;;;;;17.20;12.82;;;;;;;;;;5019495;28;20944;-84
2021/12/03 05:37:51;;;;;;;17.45;13.20;;;;;;;;;;5014464;28;20414;-84
2021/12/03 05:40:19;;;;;;;16.73;12.48;;;;;;;;;;5014456;28;20405;-84
2021/12/03 05:42:47;;;;;;;17.73;13.15;;;;;;;;;;5014790;28;20905;-84
2021/12/03 05:45:16;;;;;;;16.98;13.02;;;;;;;;;;5017575;28;20407;-84
2021/12/03 05:47:44;;;;;;;16.95;12.70;;;;;;;;;;5013416;28;20401;-84
2021/12/03 05:50:14;;;;;;;16.15;12.25;;;;;;;;;;5010398;28;20411;-83
2021/12/03 05:52:41;;;;;;;15.93;11.80;;;;;;;;;;5015384;28;20845;-83
2021/12/03 05:55:09;;;;;;;15.15;11.70;;;;;;;;;;5016317;28;20409;-83
2021/12/03 05:57:36;;;;;;;15.27;12.18;;;;;;;;;;5016186;28;20405;-84
2021/12/03 06:00:04;;;;;;;15.02;11.57;;;;;;;;;;5015579;28;20395;-84
2021/12/03 06:02:31;;;;;;;16.65;12.10;;;;;;;;;;5015383;28;20419;-84
2021/12/03 06:05:02;;;;;;;15.60;12.13;;;;;;;;;;5017186;28;20476;-84
2021/12/03 06:07:28;;;;;;;16.30;12.02;;;;;;;;;;5015020;28;20900;-82
2021/12/03 06:09:55;;;;;;;15.02;11.38;;;;;;;;;;5013980;28;20771;-82
2021/12/03 06:12:22;;;;;;;18.52;13.32;;;;;;;;;;5032045;28;21024;-84
2021/12/03 06:14:49;;;;;;;17.20;12.93;;;;;;;;;;5034262;28;20404;-84
2021/12/03 06:17:16;;;;;;;18.23;12.40;;;;;;;;;;5035704;28;20401;-83
2021/12/03 06:19:43;;;;;;;13.90;10.55;;;;;;;;;;5036874;28;20412;-84
2021/12/03 06:22:12;;;;;;;15.07;11.02;;;;;;;;;;5033515;28;20788;-84
2021/12/03 06:24:40;;;;;;;13.93;10.63;;;;;;;;;;5036472;28;20430;-84
2021/12/03 06:27:08;;;;;;;12.85;9.77;;;;;;;;;;5035937;28;20420;-84
2021/12/03 06:29:35;;;;;;;12.60;9.15;;;;;;;;;;5035500;28;20402;-81
2021/12/03 06:32:02;;;;;;;12.82;8.82;;;;;;;;;;5034651;28;20404;-87
2021/12/03 06:34:29;;;;;;;12.82;8.65;;;;;;;;;;5035349;28;20400;-84
2021/12/03 06:36:56;;;;;;;11.15;8.60;;;;;;;;;;5033820;28;20405;-83
2021/12/03 06:39:24;;;;;;;11.05;8.35;;;;;;;;;;5033046;28;20407;-83
2021/12/03 06:41:51;;;;;;;10.93;8.90;;;;;;;;;;5039786;28;20400;-83
2021/12/03 06:44:18;;;;;;;12.45;8.75;;;;;;;;;;5039113;28;20408;-82
2021/12/03 06:46:45;;;;;;;11.38;8.93;;;;;;;;;;5054004;28;20404;-83
2021/12/03 06:49:12;;;;;;;21.33;16.33;;;;;;;;;;5032040;28;20456;-83
2021/12/03 06:51:42;;;;;;;9.73;8.48;;;;;;;;;;5031910;28;20421;-82
2021/12/03 06:54:10;;;;;;;12.45;10.32;;;;;;;;;;5030554;28;20409;-84
2021/12/03 06:56:47;;;;;;;13.32;10.60;;;;;;;;;;5034241;28;20441;-82
2021/12/03 06:59:16;;;;;;;8.52;7.45;;;;;;;;;;5034269;28;20433;-83
2021/12/03 07:01:42;;;;;;;12.40;10.43;;;;;;;;;;5033069;28;20427;-82
2021/12/03 07:04:09;;;;;;;11.77;9.23;;;;;;;;;;5032976;28;20485;-82
2021/12/03 07:06:36;;;;;;;11.80;9.95;;;;;;;;;;5029084;28;20413;-83
2021/12/03 07:09:04;;;;;;;10.07;8.38;;;;;;;;;;5035134;28;20777;-82
2021/12/03 07:11:31;;;;;;;10.73;8.40;;;;;;;;;;5021077;28;20414;-82
2021/12/03 07:14:00;;;;;;;10.43;8.60;;;;;;;;;;5017412;28;20416;-82
2021/12/03 07:16:27;;;;;;;10.35;8.85;;;;;;;;;;5015478;28;20395;-83
2021/12/03 07:18:54;;;;;;;10.30;8.40;;;;;;;;;;5013266;28;20407;-82
2021/12/03 07:21:21;;;;;;;10.57;8.93;;;;;;;;;;5016891;28;20973;-83
2021/12/03 07:23:50;;;;;;;10.27;8.40;;;;;;;;;;5015185;28;20943;-82
2021/12/03 07:26:17;;;;;;;10.35;8.18;;;;;;;;;;5015369;28;20409;-83
2021/12/03 07:28:44;;;;;;;10.10;8.00;;;;;;;;;;5015337;28;20484;-82
2021/12/03 07:31:12;;;;;;;10.98;8.52;;;;;;;;;;5015967;28;20440;-82
2021/12/03 07:33:39;;;;;;;10.63;8.10;;;;;;;;;;5014731;28;20403;-83
2021/12/03 07:36:06;;;;;;;10.80;7.95;;;;;;;;;;5015095;28;20421;-83
2021/12/03 07:38:34;;;;;;;11.10;8.45;;;;;;;;;;5012313;28;20522;-83
2021/12/03 07:41:02;;;;;;;10.93;8.93;;;;;;;;;;5013501;28;20916;-83
2021/12/03 07:43:29;;;;;;;11.70;8.77;;;;;;;;;;5015355;28;20462;-83
2021/12/03 07:45:56;;;;;;;13.73;9.32;;;;;;;;;;5013597;28;20426;-83
2021/12/03 07:48:24;;;;;;;12.65;9.45;;;;;;;;;;5012822;28;20420;-83
2021/12/03 07:50:53;;;;;;;11.17;9.67;;;;;;;;;;5007390;28;20418;-83
2021/12/03 07:53:20;;;;;;;12.35;9.80;;;;;;;;;;5017162;28;20395;-83
2021/12/03 07:55:48;;;;;;;12.63;9.50;;;;;;;;;;5016389;28;21105;-83
2021/12/03 07:58:15;;;;;;;12.05;9.77;;;;;;;;;;5017814;28;20425;-83
2021/12/03 08:00:44;;;;;;;12.73;9.35;;;;;;;;;;5015821;28;20407;-83
2021/12/03 08:03:11;;;;;;;11.05;9.30;;;;;;;;;;5018021;28;20464;-83
2021/12/03 08:05:39;;;;;;;11.73;9.52;;;;;;;;;;5019233;28;20405;-83
2021/12/03 08:08:07;;;;;;;12.15;9.90;;;;;;;;;;5020125;28;20405;-83
2021/12/03 08:10:35;;;;;;;13.88;9.90;;;;;;;;;;5022000;28;20419;-83
2021/12/03 08:13:02;;;;;;;14.43;10.57;;;;;;;;;;5037154;28;20914;-83
2021/12/03 08:15:30;;;;;;;13.50;10.73;;;;;;;;;;5040407;28;20408;-83
2021/12/03 08:17:56;;;;;;;13.32;10.50;;;;;;;;;;5038711;28;20399;-83
2021/12/03 08:20:23;;;;;;;12.25;10.15;;;;;;;;;;5040787;28;20415;-83
2021/12/03 08:22:52;;;;;;;15.98;11.02;;;;;;;;;;5038020;28;20820;-83
2021/12/03 08:25:19;;;;;;;16.20;12.20;;;;;;;;;;5039182;28;20400;-83
2021/12/03 08:27:45;;;;;;;16.33;12.73;;;;;;;;;;5038043;28;20391;-83
2021/12/03 08:30:16;;;;;;;14.75;11.63;;;;;;;;;;5037564;28;20406;-83
2021/12/03 08:32:43;;;;;;;15.07;11.50;;;;;;;;;;5039718;28;20837;-83
2021/12/03 08:35:10;;;;;;;14.57;12.13;;;;;;;;;;5036728;28;20612;-83
2021/12/03 08:37:43;;;;;;;15.15;11.52;;;;;;;;;;5038115;28;20405;-83
2021/12/03 08:40:12;;;;;;;15.38;11.52;;;;;;;;;;5036550;28;20896;-82
2021/12/03 08:42:41;;;;;;;15.80;11.68;;;;;;;;;;5036557;28;20419;-82
2021/12/03 08:45:09;;;;;;;17.10;12.35;;;;;;;;;;5037164;28;20496;-83
2021/12/03 08:47:38;;;;;;;15.48;11.68;;;;;;;;;;5036962;28;20886;-83
2021/12/03 08:50:11;;;;;;;14.80;11.40;;;;;;;;;;5038619;28;20499;-83
2021/12/03 08:55:45;;;;;;;13.43;9.98;;;;;;;;;;5122104;27;20455;-81
2021/12/03 08:58:14;;;;;;;13.73;9.98;;;;;;;;;;5122375;27;20487;-83
2021/12/03 09:00:41;;;;;;;16.08;9.20;;;;;;;;;;5121037;27;20400;-83
2021/12/03 09:03:08;;;;;;;13.60;9.55;;;;;;;;;;5122198;27;20873;-83
2021/12/03 09:05:37;;;;;;;16.55;9.10;;;;;;;;;;5120656;27;20415;-83
2021/12/03 09:08:04;;;;;;;15.10;9.73;;;;;;;;;;5120515;28;20398;-83
2021/12/03 09:10:31;;;;;;;17.23;9.50;;;;;;;;;;5119261;28;20428;-83
2021/12/03 09:13:00;;;;;;;19.63;9.80;;;;;;;;;;5133478;27;20894;-83
2021/12/03 09:15:32;;;;;;;15.63;9.23;;;;;;;;;;5133882;27;20420;-83
2021/12/03 09:20:47;;;;;;;10.20;7.95;;;;;;;;;;5123324;27;20406;-83
2021/12/03 09:23:18;;;;;;;11.20;7.72;;;;;;;;;;5127685;27;20448;-83
2021/12/03 09:25:50;;;;;;;10.73;8.05;;;;;;;;;;5134033;27;20398;-83
2021/12/03 09:28:19;;;;;;;10.93;8.20;;;;;;;;;;5134146;27;20408;-83
2021/12/03 09:30:47;;;;;;;11.20;8.18;;;;;;;;;;5133471;27;20466;-83
2021/12/03 09:33:17;;;;;;;10.77;8.68;;;;;;;;;;5131109;27;20501;-83
2021/12/03 09:35:48;;;;;;;11.35;8.38;;;;;;;;;;5122928;27;20692;-83
2021/12/03 09:38:16;;;;;;;14.07;8.97;;;;;;;;;;5124134;27;20840;-83
2021/12/03 09:40:43;;;;;;;11.00;8.65;;;;;;;;;;5132910;27;20457;-84
2021/12/03 09:43:10;;;;;;;9.48;8.32;;;;;;;;;;5118720;28;20406;-83
2021/12/03 09:45:43;;;;;;;9.43;7.53;;;;;;;;;;5120193;27;20413;-83
2021/12/03 09:48:18;;;;;;;10.30;8.32;;;;;;;;;;5121777;27;20971;-83
2021/12/03 09:50:45;;;;;;;10.73;8.60;;;;;;;;;;5118833;27;20490;-84
2021/12/03 09:53:26;;;;;;;12.75;8.60;;;;;;;;;;5125225;28;20384;-83
2021/12/03 09:55:53;;;;;;;11.07;8.50;;;;;;;;;;5151503;27;20394;-83
2021/12/03 09:58:36;;;;;;;11.15;7.57;;;;;;;;;;5126758;27;20455;-82
2021/12/03 10:01:09;;;;;;;11.52;8.52;;;;;;;;;;5117800;28;20469;-82
2021/12/03 10:03:45;;;;;;;9.98;8.00;;;;;;;;;;5117968;28;20461;-82
2021/12/03 10:12:23;;;;;;;17.95;12.55;;;;;;;;;;5023095;28;20442;-81
2021/12/03 10:14:57;;;;;;;11.35;8.00;;;;;;;;;;5023822;28;20566;-84
2021/12/03 10:17:43;;;;;;;10.25;7.72;;;;;;;;;;5080668;27;20972;-84
2021/12/03 10:20:19;;;;;;;10.00;7.25;;;;;;;;;;5106201;27;20484;-83
2021/12/03 10:34:04;;;;;;;11.10;8.27;;;;;;;;;;5108750;27;20938;-83
2021/12/03 10:39:45;;;;;;;9.85;8.15;;;;;;;;;;5097116;27;20463;-83
2021/12/03 10:42:27;;;;;;;9.73;6.45;;;;;;;;;;5111634;27;20663;-83
2021/12/03 10:45:09;;;;;;;9.43;7.72;;;;;;;;;;5119883;27;20445;-83
2021/12/03 10:47:58;;;;;;;10.77;7.65;;;;;;;;;;5104329;27;20935;-83
2021/12/03 10:50:42;;;;;;;9.43;6.73;;;;;;;;;;5113901;27;20554;-83
2021/12/03 10:59:04;;;;;;;11.88;8.40;;;;;;;;;;5108674;27;20945;-83
2021/12/03 11:13:19;;;;;;;11.27;7.60;;;;;;;;;;5059749;28;20635;-83
2021/12/03 11:18:55;;;;;;;9.88;6.38;;;;;;;;;;5070658;28;20543;-83
2021/12/03 11:30:04;;;;;;;10.73;8.30;;;;;;;;;;5103321;28;20554;-82
2021/12/03 11:59:20;;;;;;;3.15;2.60;;;;;;;;;;5099306;27;20917;-82
2021/12/03 13:16:40;;;;;;;1.02;0.90;;;;;;;;;;5102703;28;20406;-84
2021/12/03 14:09:38;;;;;;;1.27;1.17;;;;;;;;;;5107850;27;20384;-82
2021/12/03 14:37:34;;;;;;;2.33;1.60;;;;;;;;;;5118184;27;20487;-83
2021/12/03 14:40:21;;;;;;;2.22;1.80;;;;;;;;;;5115183;27;20865;-83
2021/12/03 14:51:28;;;;;;;2.75;1.70;;;;;;;;;;5095389;27;20768;-83
2021/12/03 14:57:10;;;;;;;2.20;2.00;;;;;;;;;;5102916;27;20882;-83
2021/12/03 14:59:40;;;;;;;2.20;1.77;;;;;;;;;;5101497;28;20395;-84
2021/12/03 15:02:17;;;;;;;3.38;1.80;;;;;;;;;;5102444;27;20431;-84
2021/12/03 15:05:05;;;;;;;4.78;1.88;;;;;;;;;;5103790;27;21292;-83
2021/12/03 15:07:42;;;;;;;2.80;2.20;;;;;;;;;;5106583;27;20407;-83
2021/12/03 15:10:14;;;;;;;2.72;2.20;;;;;;;;;;5106345;27;20397;-83
2021/12/03 15:13:05;;;;;;;2.38;1.92;;;;;;;;;;5104992;27;20391;-83
2021/12/03 15:18:44;;;;;;;3.88;2.40;;;;;;;;;;5044858;28;20395;-82
2021/12/03 15:27:20;;;;;;;3.27;2.37;;;;;;;;;;5108498;27;21613;-83
2021/12/03 15:30:15;;;;;;;4.28;3.10;;;;;;;;;;5108576;27;20871;-83
2021/12/03 15:32:46;;;;;;;5.70;3.23;;;;;;;;;;5106647;27;20404;-83
2021/12/03 15:35:15;;;;;;;3.35;2.40;;;;;;;;;;5104294;27;20516;-82
2021/12/03 15:40:56;;;;;;;5.15;3.50;;;;;;;;;;5077751;27;20895;-83
2021/12/03 16:05:52;;;;;;;6.05;4.60;;;;;;;;;;5096668;27;20393;-84
2021/12/03 16:08:22;;;;;;;5.30;4.32;;;;;;;;;;5089678;28;20408;-83
2021/12/03 16:10:58;;;;;;;5.25;4.45;;;;;;;;;;5094833;28;20946;-83
2021/12/03 16:13:37;;;;;;;5.85;4.43;;;;;;;;;;5091363;28;20470;-83
2021/12/03 16:21:50;;;;;;;12.43;9.23;;;;;;;;;;5100691;27;20407;-83
2021/12/03 16:27:22;;;;;;;13.25;9.25;;;;;;;;;;5093850;28;20382;-83
2021/12/03 16:46:34;;;;;;;12.38;7.28;;;;;;;;;;5088656;28;20398;-81
2021/12/03 16:51:47;;;;;;;12.45;7.50;;;;;;;;;;5087446;28;20391;-82
2021/12/03 16:54:16;;;;;;;17.20;9.10;;;;;;;;;;5093022;28;20414;-82
2021/12/03 16:56:46;;;;;;;16.25;8.52;;;;;;;;;;5094947;28;20420;-82
2021/12/03 16:59:15;;;;;;;14.27;9.07;;;;;;;;;;5091641;28;20739;-82
2021/12/03 17:01:46;;;;;;;18.52;11.52;;;;;;;;;;5092862;28;20415;-82
2021/12/03 17:04:27;;;;;;;26.05;14.93;;;;;;;;;;5094386;28;20837;-82
2021/12/03 17:12:38;;;;;;;21.50;12.70;;;;;;;;;;5093948;28;20398;-81
2021/12/03 17:15:22;;;;;;;23.33;12.53;;;;;;;;;;5094247;28;21041;-82
2021/12/03 17:48:33;;;;;;;18.75;12.13;;;;;;;;;;5081911;28;21201;-82
2021/12/03 17:51:09;;;;;;;18.83;11.90;;;;;;;;;;5101574;28;20406;-84
2021/12/03 17:54:03;;;;;;;18.13;11.82;;;;;;;;;;5103170;27;20468;-83
2021/12/03 17:56:31;;;;;;;20.02;12.77;;;;;;;;;;5100217;28;20422;-82
2021/12/03 17:59:04;;;;;;;19.92;13.93;;;;;;;;;;5103669;27;20422;-84
2021/12/03 18:01:36;;;;;;;20.40;13.90;;;;;;;;;;5098371;27;20405;-83
2021/12/03 18:04:09;;;;;;;21.65;14.07;;;;;;;;;;5103881;27;20407;-81
2021/12/03 18:06:55;;;;;;;18.17;13.10;;;;;;;;;;5095431;28;20415;-82
2021/12/03 18:48:28;;;;;;;25.33;16.65;;;;;;;;;;5097245;28;20387;-82
2021/12/03 18:51:05;;;;;;;24.70;16.27;;;;;;;;;;5094371;27;20406;-82
2021/12/03 18:54:02;;;;;;;24.77;16.85;;;;;;;;;;5095430;28;20417;-81
2021/12/03 18:56:32;;;;;;;25.55;16.38;;;;;;;;;;5091050;28;20422;-82
2021/12/03 18:59:04;;;;;;;21.50;15.52;;;;;;;;;;5096404;28;20407;-84
2021/12/03 19:01:32;;;;;;;19.45;14.18;;;;;;;;;;5094710;27;20394;-84
2021/12/03 19:04:12;;;;;;;20.20;14.63;;;;;;;;;;5095854;28;20410;-85
2021/12/03 19:06:42;;;;;;;18.83;13.88;;;;;;;;;;5092735;27;20407;-85
2021/12/03 19:09:14;;;;;;;21.17;14.13;;;;;;;;;;5092301;28;20895;-85
2021/12/03 19:11:45;;;;;;;16.53;13.63;;;;;;;;;;5091911;27;20525;-84
2021/12/03 19:14:12;;;;;;;19.17;13.45;;;;;;;;;;5090183;28;20419;-85
2021/12/03 19:16:39;;;;;;;19.08;12.93;;;;;;;;;;5092380;28;20502;-84
2021/12/03 19:19:08;;;;;;;17.43;12.00;;;;;;;;;;5094351;27;20392;-83
2021/12/03 19:21:39;;;;;;;16.63;11.65;;;;;;;;;;5091161;28;20505;-84
2021/12/03 19:24:07;;;;;;;13.52;10.15;;;;;;;;;;5092837;28;20491;-85
2021/12/03 19:26:42;;;;;;;10.25;8.77;;;;;;;;;;5093792;27;20399;-84
2021/12/03 19:29:11;;;;;;;11.07;8.70;;;;;;;;;;5091856;27;20431;-85
2021/12/03 19:31:39;;;;;;;10.57;8.38;;;;;;;;;;5092874;28;20403;-85
2021/12/03 19:34:06;;;;;;;10.77;8.40;;;;;;;;;;5095968;28;20504;-85
2021/12/03 19:36:38;;;;;;;11.88;8.90;;;;;;;;;;5092575;27;20898;-83
2021/12/03 19:39:06;;;;;;;12.25;9.38;;;;;;;;;;5100708;28;20398;-84
2021/12/03 19:41:38;;;;;;;14.98;10.98;;;;;;;;;;5103407;27;20390;-84
2021/12/03 19:44:09;;;;;;;15.87;10.97;;;;;;;;;;5101339;28;20497;-85
2021/12/03 19:46:38;;;;;;;16.35;11.23;;;;;;;;;;5097900;28;20450;-84
2021/12/03 19:49:10;;;;;;;14.63;11.20;;;;;;;;;;5100419;27;20412;-85
2021/12/03 19:51:43;;;;;;;14.18;11.38;;;;;;;;;;5099427;28;20402;-85
2021/12/03 19:54:10;;;;;;;15.95;11.43;;;;;;;;;;5094489;27;20487;-84
2021/12/03 19:56:39;;;;;;;14.40;11.60;;;;;;;;;;5098656;28;20774;-83
2021/12/03 19:59:05;;;;;;;15.43;11.90;;;;;;;;;;5099964;28;20399;-84
2021/12/03 20:01:34;;;;;;;15.55;11.80;;;;;;;;;;5101598;28;20406;-85
2021/12/03 20:04:01;;;;;;;15.75;12.35;;;;;;;;;;5100213;27;20407;-85
2021/12/03 20:06:28;;;;;;;19.73;12.15;;;;;;;;;;5100141;27;20411;-85
2021/12/03 20:08:57;;;;;;;15.50;12.45;;;;;;;;;;5097628;28;20402;-84
2021/12/03 20:11:27;;;;;;;16.05;11.73;;;;;;;;;;5098747;28;20406;-85
2021/12/03 20:13:59;;;;;;;12.82;10.25;;;;;;;;;;5102521;28;20399;-84
2021/12/03 20:16:29;;;;;;;11.95;9.82;;;;;;;;;;5100008;27;20428;-83
2021/12/03 20:19:01;;;;;;;12.73;9.32;;;;;;;;;;5095105;27;21089;-84
2021/12/03 20:21:29;;;;;;;14.45;10.43;;;;;;;;;;5100383;28;20411;-82
2021/12/03 20:24:06;;;;;;;12.68;10.02;;;;;;;;;;5106204;27;20451;-84
2021/12/03 20:26:45;;;;;;;11.60;9.20;;;;;;;;;;5108436;27;20409;-86
2021/12/03 20:29:17;;;;;;;11.23;9.27;;;;;;;;;;5111171;27;20469;-83
2021/12/03 20:31:47;;;;;;;11.63;9.77;;;;;;;;;;5115725;27;20384;-84
2021/12/03 20:34:31;;;;;;;13.10;9.75;;;;;;;;;;5111434;27;20405;-84
2021/12/03 20:37:01;;;;;;;13.65;10.10;;;;;;;;;;5098530;27;20429;-85
2021/12/03 20:39:33;;;;;;;12.10;9.57;;;;;;;;;;5100701;27;20426;-84
2021/12/03 20:42:04;;;;;;;11.60;9.80;;;;;;;;;;5095989;28;20946;-84
2021/12/03 20:44:59;;;;;;;11.43;9.23;;;;;;;;;;5097360;27;20435;-84
2021/12/03 21:09:25;;;;;;;14.05;10.93;;;;;;;;;;5099142;27;20409;-85
2021/12/03 21:11:56;;;;;;;16.08;11.35;;;;;;;;;;5099361;28;20772;-85
2021/12/03 21:14:25;;;;;;;20.08;12.73;;;;;;;;;;5095571;28;20403;-85
2021/12/03 21:19:41;;;;;;;16.10;12.45;;;;;;;;;;5078042;28;20512;-86
2021/12/03 21:22:11;;;;;;;16.77;11.80;;;;;;;;;;5091980;28;20431;-86
2021/12/03 21:24:41;;;;;;;21.88;14.68;;;;;;;;;;5089624;28;20414;-85
2021/12/03 21:27:12;;;;;;;21.45;13.82;;;;;;;;;;5097790;28;20416;-85
2021/12/03 21:29:49;;;;;;;19.45;13.60;;;;;;;;;;5098760;28;20423;-86